Aérodrome :
LOGIN :

S'inscrire | Disclaimer

   EN    FR    IT 

 










Légende :    VFR   VFR Marginal   IFR   IFR Intensif   IFR Très Intensif
Visi : 
Plafond : 
>= 8 km
>= 3000ft
5 à 8 km
1000 à 3000 ft
1500m à 5 km
500 à 1000 ft
800 à 1500m
200 à 500 ft
< 800m
< 200 ft
Symboles :   Orages  Brouillard  Fortes neiges  Fortes précipitations  Vent > 20 kt
SIGMETs :   Divers  Orages  Givrage  Turbulence  Onde Orograph.  Cendres Volcan.






- Altitude de l'aérodrome : 2356 ft


LZTT - Poprad Tatry

DERNIER METAR :
  • 062200Z 25008KT CAVOK 04/M05 Q1032

METARs EXPIRÉS :
  • 062130Z 25007KT CAVOK 03/M05 Q1032
  • 062100Z 24003KT 210V270 CAVOK 02/M05 Q1032
  • 062030Z 24002KT CAVOK 03/M04 Q1032
  • 062000Z 27004KT CAVOK 03/M05 Q1032
  • 061930Z 26006KT CAVOK 04/M05 Q1031

TAF TAF LZTT
Valide du 06 à 18h jusqu'au 07 à 18h UTC


061700Z 0618/0718 26005KT CAVOK
TEMPO 0708/0712 25012KT
TEMPO 0712/0716 20010KT



MET'MAP, la Météo Aéronautique d'un coup d'oeil ! - Copyright ORBIFLY Décembre 2007 - Disclaimer

ORBIFLY MET'MAP TEAM :

Programmation & Développement : Alexandra Zaïnal
Sur une idée originale de : Baudouin d'Aumeries
Assistance à la programmation : Marc-Olivier Méhu
Soutien technique & logistique : Manuel Goepfert

Contact : metmap@orbifly.com




SOURCES & CREDITS :

   NOAA